sensor_id;sensor_type;location;lat;lon;timestamp;P1;durP1;ratioP1;P2;durP2;ratioP2
42616;SDS011;28250;52.320;0.360;2023-04-24T00:00:22;19.35;;;10.35;;
42616;SDS011;28250;52.320;0.360;2023-04-24T00:02:48;25.52;;;10.07;;
42616;SDS011;28250;52.320;0.360;2023-04-24T00:05:15;20.88;;;11.57;;
42616;SDS011;28250;52.320;0.360;2023-04-24T00:07:43;19.35;;;10.68;;
42616;SDS011;28250;52.320;0.360;2023-04-24T00:12:36;20.20;;;10.77;;
42616;SDS011;28250;52.320;0.360;2023-04-24T00:15:03;19.80;;;11.10;;
42616;SDS011;28250;52.320;0.360;2023-04-24T00:20:30;18.67;;;10.05;;
42616;SDS011;28250;52.320;0.360;2023-04-24T00:22:57;22.77;;;10.70;;
42616;SDS011;28250;52.320;0.360;2023-04-24T00:25:24;23.77;;;10.88;;
42616;SDS011;28250;52.320;0.360;2023-04-24T00:27:50;24.15;;;10.85;;
42616;SDS011;28250;52.320;0.360;2023-04-24T00:30:16;19.40;;;10.32;;
42616;SDS011;28250;52.320;0.360;2023-04-24T00:32:42;20.80;;;10.40;;
42616;SDS011;28250;52.320;0.360;2023-04-24T00:35:08;20.77;;;11.15;;
42616;SDS011;28250;52.320;0.360;2023-04-24T00:37:35;16.80;;;10.38;;
42616;SDS011;28250;52.320;0.360;2023-04-24T00:40:01;18.55;;;10.50;;
42616;SDS011;28250;52.320;0.360;2023-04-24T00:42:28;16.77;;;10.45;;
42616;SDS011;28250;52.320;0.360;2023-04-24T00:44:55;20.08;;;10.65;;
42616;SDS011;28250;52.320;0.360;2023-04-24T00:47:22;22.40;;;10.50;;
42616;SDS011;28250;52.320;0.360;2023-04-24T00:49:48;18.73;;;10.10;;
42616;SDS011;28250;52.320;0.360;2023-04-24T00:52:14;22.27;;;10.60;;
42616;SDS011;28250;52.320;0.360;2023-04-24T00:54:45;21.35;;;10.38;;
42616;SDS011;28250;52.320;0.360;2023-04-24T00:57:12;17.85;;;10.00;;
42616;SDS011;28250;52.320;0.360;2023-04-24T00:59:41;20.70;;;10.23;;
42616;SDS011;28250;52.320;0.360;2023-04-24T01:02:08;21.42;;;10.35;;
42616;SDS011;28250;52.320;0.360;2023-04-24T01:04:36;20.38;;;11.07;;
42616;SDS011;28250;52.320;0.360;2023-04-24T01:09:35;20.17;;;10.85;;
42616;SDS011;28250;52.320;0.360;2023-04-24T01:12:07;21.00;;;10.55;;
42616;SDS011;28250;52.320;0.360;2023-04-24T01:14:33;18.92;;;10.25;;
42616;SDS011;28250;52.320;0.360;2023-04-24T01:16:59;18.73;;;9.88;;
42616;SDS011;28250;52.320;0.360;2023-04-24T01:19:27;20.92;;;9.98;;
42616;SDS011;28250;52.320;0.360;2023-04-24T01:21:53;17.00;;;9.07;;
42616;SDS011;28250;52.320;0.360;2023-04-24T01:24:23;21.80;;;9.02;;
42616;SDS011;28250;52.320;0.360;2023-04-24T01:26:50;20.10;;;8.27;;
42616;SDS011;28250;52.320;0.360;2023-04-24T01:29:17;18.20;;;8.43;;
42616;SDS011;28250;52.320;0.360;2023-04-24T01:31:44;18.53;;;8.67;;
42616;SDS011;28250;52.320;0.360;2023-04-24T01:34:10;18.63;;;8.32;;
42616;SDS011;28250;52.320;0.360;2023-04-24T01:36:36;19.33;;;8.10;;
42616;SDS011;28250;52.320;0.360;2023-04-24T01:41:31;17.27;;;7.40;;
42616;SDS011;28250;52.320;0.360;2023-04-24T01:43:58;17.63;;;7.87;;
42616;SDS011;28250;52.320;0.360;2023-04-24T01:46:24;19.48;;;7.53;;
42616;SDS011;28250;52.320;0.360;2023-04-24T01:48:50;16.63;;;6.95;;
42616;SDS011;28250;52.320;0.360;2023-04-24T01:51:18;16.35;;;7.43;;
42616;SDS011;28250;52.320;0.360;2023-04-24T01:53:44;17.27;;;7.35;;
42616;SDS011;28250;52.320;0.360;2023-04-24T01:56:11;15.70;;;6.88;;
42616;SDS011;28250;52.320;0.360;2023-04-24T01:58:37;10.23;;;5.43;;
42616;SDS011;28250;52.320;0.360;2023-04-24T02:01:03;17.63;;;5.93;;
42616;SDS011;28250;52.320;0.360;2023-04-24T02:03:30;14.95;;;5.93;;
42616;SDS011;28250;52.320;0.360;2023-04-24T02:05:57;13.25;;;5.75;;
42616;SDS011;28250;52.320;0.360;2023-04-24T02:08:23;14.68;;;5.45;;
42616;SDS011;28250;52.320;0.360;2023-04-24T02:10:49;15.15;;;5.47;;
42616;SDS011;28250;52.320;0.360;2023-04-24T02:13:15;16.60;;;4.97;;
42616;SDS011;28250;52.320;0.360;2023-04-24T02:15:41;11.25;;;4.80;;
42616;SDS011;28250;52.320;0.360;2023-04-24T02:18:08;13.35;;;6.05;;
42616;SDS011;28250;52.320;0.360;2023-04-24T02:20:34;12.43;;;4.63;;
42616;SDS011;28250;52.320;0.360;2023-04-24T02:23:01;14.37;;;4.90;;
42616;SDS011;28250;52.320;0.360;2023-04-24T02:25:27;16.45;;;4.78;;
42616;SDS011;28250;52.320;0.360;2023-04-24T02:30:20;12.00;;;4.65;;
42616;SDS011;28250;52.320;0.360;2023-04-24T02:32:46;13.07;;;4.72;;
42616;SDS011;28250;52.320;0.360;2023-04-24T02:35:12;17.25;;;4.82;;
42616;SDS011;28250;52.320;0.360;2023-04-24T02:37:38;14.05;;;4.28;;
42616;SDS011;28250;52.320;0.360;2023-04-24T02:40:05;12.95;;;4.25;;
42616;SDS011;28250;52.320;0.360;2023-04-24T02:42:35;10.35;;;3.45;;
42616;SDS011;28250;52.320;0.360;2023-04-24T02:45:01;17.75;;;3.88;;
42616;SDS011;28250;52.320;0.360;2023-04-24T02:47:29;13.40;;;3.70;;
42616;SDS011;28250;52.320;0.360;2023-04-24T02:49:55;15.95;;;3.47;;
42616;SDS011;28250;52.320;0.360;2023-04-24T02:52:21;10.55;;;4.10;;
42616;SDS011;28250;52.320;0.360;2023-04-24T02:54:47;8.77;;;3.40;;
42616;SDS011;28250;52.320;0.360;2023-04-24T02:57:13;7.35;;;2.83;;
42616;SDS011;28250;52.320;0.360;2023-04-24T02:59:41;11.77;;;3.70;;
42616;SDS011;28250;52.320;0.360;2023-04-24T03:02:07;9.15;;;2.85;;
42616;SDS011;28250;52.320;0.360;2023-04-24T03:04:33;10.57;;;2.97;;
42616;SDS011;28250;52.320;0.360;2023-04-24T03:06:59;12.80;;;3.60;;
42616;SDS011;28250;52.320;0.360;2023-04-24T03:09:26;12.68;;;2.92;;
42616;SDS011;28250;52.320;0.360;2023-04-24T03:11:52;17.30;;;3.22;;
42616;SDS011;28250;52.320;0.360;2023-04-24T03:14:18;8.70;;;3.42;;
42616;SDS011;28250;52.320;0.360;2023-04-24T03:16:44;13.05;;;4.97;;
42616;SDS011;28250;52.320;0.360;2023-04-24T03:19:10;12.93;;;3.67;;
42616;SDS011;28250;52.320;0.360;2023-04-24T03:21:45;10.55;;;2.85;;
42616;SDS011;28250;52.320;0.360;2023-04-24T03:24:11;10.40;;;3.53;;
42616;SDS011;28250;52.320;0.360;2023-04-24T03:26:37;14.20;;;3.08;;
42616;SDS011;28250;52.320;0.360;2023-04-24T03:29:16;8.13;;;3.38;;
42616;SDS011;28250;52.320;0.360;2023-04-24T03:31:42;9.77;;;3.20;;
42616;SDS011;28250;52.320;0.360;2023-04-24T03:34:08;9.13;;;3.88;;
42616;SDS011;28250;52.320;0.360;2023-04-24T03:36:35;12.57;;;3.60;;
42616;SDS011;28250;52.320;0.360;2023-04-24T03:39:02;11.15;;;3.28;;
42616;SDS011;28250;52.320;0.360;2023-04-24T03:41:32;10.32;;;3.20;;
42616;SDS011;28250;52.320;0.360;2023-04-24T03:44:21;12.13;;;4.45;;
42616;SDS011;28250;52.320;0.360;2023-04-24T03:46:47;17.55;;;3.45;;
42616;SDS011;28250;52.320;0.360;2023-04-24T03:49:13;12.02;;;3.22;;
42616;SDS011;28250;52.320;0.360;2023-04-24T03:51:42;10.23;;;3.08;;
42616;SDS011;28250;52.320;0.360;2023-04-24T03:54:23;12.15;;;3.15;;
42616;SDS011;28250;52.320;0.360;2023-04-24T03:59:17;8.45;;;2.75;;
42616;SDS011;28250;52.320;0.360;2023-04-24T04:01:47;7.05;;;2.78;;
42616;SDS011;28250;52.320;0.360;2023-04-24T04:04:15;7.97;;;2.75;;
42616;SDS011;28250;52.320;0.360;2023-04-24T04:09:17;7.30;;;2.42;;
42616;SDS011;28250;52.320;0.360;2023-04-24T04:11:44;9.55;;;2.47;;
42616;SDS011;28250;52.320;0.360;2023-04-24T04:14:11;9.07;;;2.60;;
42616;SDS011;28250;52.320;0.360;2023-04-24T04:16:40;12.32;;;3.50;;
42616;SDS011;28250;52.320;0.360;2023-04-24T04:19:07;10.27;;;3.08;;
42616;SDS011;28250;52.320;0.360;2023-04-24T04:21:33;6.13;;;2.87;;
42616;SDS011;28250;52.320;0.360;2023-04-24T04:24:09;10.75;;;2.50;;
42616;SDS011;28250;52.320;0.360;2023-04-24T04:26:42;12.40;;;2.80;;
42616;SDS011;28250;52.320;0.360;2023-04-24T04:29:12;7.85;;;2.25;;
42616;SDS011;28250;52.320;0.360;2023-04-24T04:31:42;8.57;;;2.50;;
42616;SDS011;28250;52.320;0.360;2023-04-24T04:34:12;7.45;;;2.22;;
42616;SDS011;28250;52.320;0.360;2023-04-24T04:39:21;10.45;;;2.42;;
42616;SDS011;28250;52.320;0.360;2023-04-24T04:42:00;9.85;;;2.78;;
42616;SDS011;28250;52.320;0.360;2023-04-24T04:44:32;8.20;;;3.30;;
42616;SDS011;28250;52.320;0.360;2023-04-24T04:46:59;6.82;;;2.72;;
42616;SDS011;28250;52.320;0.360;2023-04-24T04:49:28;5.78;;;2.08;;
42616;SDS011;28250;52.320;0.360;2023-04-24T04:51:56;8.25;;;2.40;;
42616;SDS011;28250;52.320;0.360;2023-04-24T04:54:24;8.68;;;2.60;;
42616;SDS011;28250;52.320;0.360;2023-04-24T04:56:50;6.15;;;2.15;;
42616;SDS011;28250;52.320;0.360;2023-04-24T04:59:17;7.15;;;2.38;;
42616;SDS011;28250;52.320;0.360;2023-04-24T05:01:43;11.52;;;3.08;;
42616;SDS011;28250;52.320;0.360;2023-04-24T05:04:11;5.88;;;2.30;;
42616;SDS011;28250;52.320;0.360;2023-04-24T05:06:37;8.73;;;2.60;;
42616;SDS011;28250;52.320;0.360;2023-04-24T05:09:05;9.18;;;2.83;;
42616;SDS011;28250;52.320;0.360;2023-04-24T05:11:42;11.60;;;2.90;;
42616;SDS011;28250;52.320;0.360;2023-04-24T05:14:09;11.80;;;2.20;;
42616;SDS011;28250;52.320;0.360;2023-04-24T05:16:39;7.70;;;2.67;;
42616;SDS011;28250;52.320;0.360;2023-04-24T05:19:07;9.85;;;2.92;;
42616;SDS011;28250;52.320;0.360;2023-04-24T05:21:37;6.63;;;2.33;;
42616;SDS011;28250;52.320;0.360;2023-04-24T05:24:04;6.50;;;2.70;;
42616;SDS011;28250;52.320;0.360;2023-04-24T05:26:51;8.35;;;2.80;;
42616;SDS011;28250;52.320;0.360;2023-04-24T05:29:25;6.82;;;2.70;;
42616;SDS011;28250;52.320;0.360;2023-04-24T05:31:52;9.77;;;3.05;;
42616;SDS011;28250;52.320;0.360;2023-04-24T05:34:19;6.95;;;2.40;;
42616;SDS011;28250;52.320;0.360;2023-04-24T05:36:49;5.55;;;2.50;;
42616;SDS011;28250;52.320;0.360;2023-04-24T05:39:15;10.90;;;3.10;;
42616;SDS011;28250;52.320;0.360;2023-04-24T05:41:42;11.18;;;2.75;;
42616;SDS011;28250;52.320;0.360;2023-04-24T05:44:08;8.82;;;3.50;;
42616;SDS011;28250;52.320;0.360;2023-04-24T05:46:34;14.50;;;3.75;;
42616;SDS011;28250;52.320;0.360;2023-04-24T05:49:00;16.50;;;4.70;;
42616;SDS011;28250;52.320;0.360;2023-04-24T05:51:27;13.77;;;4.93;;
42616;SDS011;28250;52.320;0.360;2023-04-24T05:53:54;11.23;;;5.10;;
42616;SDS011;28250;52.320;0.360;2023-04-24T05:56:20;11.98;;;4.35;;
42616;SDS011;28250;52.320;0.360;2023-04-24T06:01:13;10.55;;;3.53;;
42616;SDS011;28250;52.320;0.360;2023-04-24T06:03:41;12.52;;;3.72;;
42616;SDS011;28250;52.320;0.360;2023-04-24T06:06:07;13.23;;;3.00;;
42616;SDS011;28250;52.320;0.360;2023-04-24T06:08:35;20.38;;;4.00;;
42616;SDS011;28250;52.320;0.360;2023-04-24T06:11:01;7.80;;;3.10;;
42616;SDS011;28250;52.320;0.360;2023-04-24T06:13:27;10.07;;;3.23;;
42616;SDS011;28250;52.320;0.360;2023-04-24T06:16:19;7.22;;;2.75;;
42616;SDS011;28250;52.320;0.360;2023-04-24T06:18:52;7.68;;;3.13;;
42616;SDS011;28250;52.320;0.360;2023-04-24T06:21:19;6.47;;;3.37;;
42616;SDS011;28250;52.320;0.360;2023-04-24T06:23:46;12.00;;;3.10;;
42616;SDS011;28250;52.320;0.360;2023-04-24T06:26:13;8.13;;;3.13;;
42616;SDS011;28250;52.320;0.360;2023-04-24T06:28:39;12.55;;;3.20;;
42616;SDS011;28250;52.320;0.360;2023-04-24T06:31:06;10.55;;;3.20;;
42616;SDS011;28250;52.320;0.360;2023-04-24T06:33:32;8.38;;;3.45;;
42616;SDS011;28250;52.320;0.360;2023-04-24T06:35:58;6.93;;;2.90;;
42616;SDS011;28250;52.320;0.360;2023-04-24T06:38:24;7.72;;;2.80;;
42616;SDS011;28250;52.320;0.360;2023-04-24T06:40:50;6.87;;;3.20;;
42616;SDS011;28250;52.320;0.360;2023-04-24T06:43:16;7.45;;;3.28;;
42616;SDS011;28250;52.320;0.360;2023-04-24T06:45:42;5.68;;;3.33;;
42616;SDS011;28250;52.320;0.360;2023-04-24T06:48:09;8.02;;;2.95;;
42616;SDS011;28250;52.320;0.360;2023-04-24T06:50:35;7.40;;;2.92;;
42616;SDS011;28250;52.320;0.360;2023-04-24T06:53:01;5.63;;;3.45;;
42616;SDS011;28250;52.320;0.360;2023-04-24T06:55:27;10.32;;;3.35;;
42616;SDS011;28250;52.320;0.360;2023-04-24T06:57:53;11.75;;;4.15;;
42616;SDS011;28250;52.320;0.360;2023-04-24T07:00:20;8.95;;;3.15;;
42616;SDS011;28250;52.320;0.360;2023-04-24T07:02:46;9.10;;;3.38;;
42616;SDS011;28250;52.320;0.360;2023-04-24T07:05:12;9.10;;;3.40;;
42616;SDS011;28250;52.320;0.360;2023-04-24T07:07:38;9.75;;;2.83;;
42616;SDS011;28250;52.320;0.360;2023-04-24T07:10:05;7.90;;;2.35;;
42616;SDS011;28250;52.320;0.360;2023-04-24T07:12:33;6.05;;;2.63;;
42616;SDS011;28250;52.320;0.360;2023-04-24T07:15:00;7.53;;;2.50;;
42616;SDS011;28250;52.320;0.360;2023-04-24T07:17:27;6.35;;;2.88;;
42616;SDS011;28250;52.320;0.360;2023-04-24T07:19:53;6.55;;;2.33;;
42616;SDS011;28250;52.320;0.360;2023-04-24T07:22:19;4.97;;;2.33;;
42616;SDS011;28250;52.320;0.360;2023-04-24T07:24:45;8.90;;;2.70;;
42616;SDS011;28250;52.320;0.360;2023-04-24T07:27:11;10.77;;;2.72;;
42616;SDS011;28250;52.320;0.360;2023-04-24T07:29:37;6.25;;;2.72;;
42616;SDS011;28250;52.320;0.360;2023-04-24T07:32:03;7.35;;;2.60;;
42616;SDS011;28250;52.320;0.360;2023-04-24T07:34:29;8.25;;;2.40;;
42616;SDS011;28250;52.320;0.360;2023-04-24T07:36:55;9.88;;;2.47;;
42616;SDS011;28250;52.320;0.360;2023-04-24T07:39:21;10.00;;;2.40;;
42616;SDS011;28250;52.320;0.360;2023-04-24T07:41:47;6.10;;;2.03;;
42616;SDS011;28250;52.320;0.360;2023-04-24T07:44:13;5.82;;;2.22;;
42616;SDS011;28250;52.320;0.360;2023-04-24T07:46:40;7.50;;;2.42;;
42616;SDS011;28250;52.320;0.360;2023-04-24T07:49:06;5.83;;;1.77;;
42616;SDS011;28250;52.320;0.360;2023-04-24T07:51:32;5.22;;;2.20;;
42616;SDS011;28250;52.320;0.360;2023-04-24T07:54:03;5.30;;;1.80;;
42616;SDS011;28250;52.320;0.360;2023-04-24T07:56:33;7.88;;;2.30;;
42616;SDS011;28250;52.320;0.360;2023-04-24T08:01:27;6.50;;;2.00;;
42616;SDS011;28250;52.320;0.360;2023-04-24T08:03:53;9.00;;;1.60;;
42616;SDS011;28250;52.320;0.360;2023-04-24T08:06:19;6.55;;;1.95;;
42616;SDS011;28250;52.320;0.360;2023-04-24T08:08:45;4.47;;;1.60;;
42616;SDS011;28250;52.320;0.360;2023-04-24T08:11:11;8.15;;;1.88;;
42616;SDS011;28250;52.320;0.360;2023-04-24T08:13:37;7.60;;;1.60;;
42616;SDS011;28250;52.320;0.360;2023-04-24T08:16:03;8.95;;;1.95;;
42616;SDS011;28250;52.320;0.360;2023-04-24T08:18:29;7.07;;;1.30;;
42616;SDS011;28250;52.320;0.360;2023-04-24T08:20:55;6.53;;;1.77;;
42616;SDS011;28250;52.320;0.360;2023-04-24T08:23:26;7.30;;;1.45;;
42616;SDS011;28250;52.320;0.360;2023-04-24T08:25:54;4.30;;;1.50;;
42616;SDS011;28250;52.320;0.360;2023-04-24T08:28:20;8.60;;;1.80;;
42616;SDS011;28250;52.320;0.360;2023-04-24T08:30:47;5.55;;;1.30;;
42616;SDS011;28250;52.320;0.360;2023-04-24T08:33:13;11.80;;;2.08;;
42616;SDS011;28250;52.320;0.360;2023-04-24T08:35:40;7.32;;;1.48;;
42616;SDS011;28250;52.320;0.360;2023-04-24T08:38:06;4.30;;;1.75;;
42616;SDS011;28250;52.320;0.360;2023-04-24T08:40:33;8.15;;;2.03;;
42616;SDS011;28250;52.320;0.360;2023-04-24T08:43:00;5.30;;;2.10;;
42616;SDS011;28250;52.320;0.360;2023-04-24T08:45:26;6.88;;;1.88;;
42616;SDS011;28250;52.320;0.360;2023-04-24T08:47:53;6.43;;;1.80;;
42616;SDS011;28250;52.320;0.360;2023-04-24T08:50:22;5.20;;;1.85;;
42616;SDS011;28250;52.320;0.360;2023-04-24T08:52:51;4.18;;;1.92;;
42616;SDS011;28250;52.320;0.360;2023-04-24T08:55:19;7.03;;;1.90;;
42616;SDS011;28250;52.320;0.360;2023-04-24T08:57:49;10.95;;;1.95;;
42616;SDS011;28250;52.320;0.360;2023-04-24T09:00:21;4.20;;;1.55;;
42616;SDS011;28250;52.320;0.360;2023-04-24T09:02:52;8.27;;;1.83;;
42616;SDS011;28250;52.320;0.360;2023-04-24T09:05:18;6.82;;;2.03;;
42616;SDS011;28250;52.320;0.360;2023-04-24T09:07:53;4.72;;;1.80;;
42616;SDS011;28250;52.320;0.360;2023-04-24T09:10:21;7.03;;;1.42;;
42616;SDS011;28250;52.320;0.360;2023-04-24T09:12:51;8.85;;;1.70;;
42616;SDS011;28250;52.320;0.360;2023-04-24T09:15:19;7.25;;;1.92;;
42616;SDS011;28250;52.320;0.360;2023-04-24T09:17:45;6.60;;;1.83;;
42616;SDS011;28250;52.320;0.360;2023-04-24T09:20:12;3.87;;;1.50;;
42616;SDS011;28250;52.320;0.360;2023-04-24T09:22:38;4.38;;;1.58;;
42616;SDS011;28250;52.320;0.360;2023-04-24T09:25:07;7.60;;;1.88;;
42616;SDS011;28250;52.320;0.360;2023-04-24T09:27:36;11.50;;;3.33;;
42616;SDS011;28250;52.320;0.360;2023-04-24T09:30:09;6.53;;;2.17;;
42616;SDS011;28250;52.320;0.360;2023-04-24T09:32:36;7.40;;;2.50;;
42616;SDS011;28250;52.320;0.360;2023-04-24T09:35:09;8.80;;;2.63;;
42616;SDS011;28250;52.320;0.360;2023-04-24T09:37:41;10.00;;;2.72;;
42616;SDS011;28250;52.320;0.360;2023-04-24T09:40:19;10.50;;;2.30;;
42616;SDS011;28250;52.320;0.360;2023-04-24T09:42:55;9.73;;;2.42;;
42616;SDS011;28250;52.320;0.360;2023-04-24T09:45:22;7.13;;;2.45;;
42616;SDS011;28250;52.320;0.360;2023-04-24T09:48:02;7.00;;;2.03;;
42616;SDS011;28250;52.320;0.360;2023-04-24T09:50:29;5.57;;;1.85;;
42616;SDS011;28250;52.320;0.360;2023-04-24T09:53:03;5.88;;;2.03;;
42616;SDS011;28250;52.320;0.360;2023-04-24T09:55:35;7.75;;;1.90;;
42616;SDS011;28250;52.320;0.360;2023-04-24T09:58:07;8.30;;;2.53;;
42616;SDS011;28250;52.320;0.360;2023-04-24T10:00:33;6.20;;;2.22;;
42616;SDS011;28250;52.320;0.360;2023-04-24T10:03:00;8.65;;;2.40;;
42616;SDS011;28250;52.320;0.360;2023-04-24T10:08:07;6.95;;;2.00;;
42616;SDS011;28250;52.320;0.360;2023-04-24T10:10:40;7.57;;;2.20;;
42616;SDS011;28250;52.320;0.360;2023-04-24T10:13:11;6.85;;;2.33;;
42616;SDS011;28250;52.320;0.360;2023-04-24T10:15:40;9.23;;;2.28;;
42616;SDS011;28250;52.320;0.360;2023-04-24T10:18:07;13.00;;;2.10;;
42616;SDS011;28250;52.320;0.360;2023-04-24T10:20:36;5.40;;;2.08;;
42616;SDS011;28250;52.320;0.360;2023-04-24T10:23:05;12.45;;;2.83;;
42616;SDS011;28250;52.320;0.360;2023-04-24T10:25:35;11.82;;;2.97;;
42616;SDS011;28250;52.320;0.360;2023-04-24T10:28:02;5.55;;;2.03;;
42616;SDS011;28250;52.320;0.360;2023-04-24T10:33:01;5.03;;;1.75;;
42616;SDS011;28250;52.320;0.360;2023-04-24T10:35:32;9.23;;;2.13;;
42616;SDS011;28250;52.320;0.360;2023-04-24T10:38:08;9.75;;;1.83;;
42616;SDS011;28250;52.320;0.360;2023-04-24T10:40:37;9.00;;;2.22;;
42616;SDS011;28250;52.320;0.360;2023-04-24T10:43:04;7.57;;;1.77;;
42616;SDS011;28250;52.320;0.360;2023-04-24T10:45:33;6.13;;;2.20;;
42616;SDS011;28250;52.320;0.360;2023-04-24T10:48:04;5.60;;;1.88;;
42616;SDS011;28250;52.320;0.360;2023-04-24T10:50:43;7.55;;;2.03;;
42616;SDS011;28250;52.320;0.360;2023-04-24T10:53:18;5.20;;;1.98;;
42616;SDS011;28250;52.320;0.360;2023-04-24T10:55:59;8.77;;;2.22;;
42616;SDS011;28250;52.320;0.360;2023-04-24T10:58:42;5.38;;;2.38;;
42616;SDS011;28250;52.320;0.360;2023-04-24T11:01:25;7.57;;;2.37;;
42616;SDS011;28250;52.320;0.360;2023-04-24T11:03:54;9.02;;;2.28;;
42616;SDS011;28250;52.320;0.360;2023-04-24T11:06:32;11.35;;;2.15;;
42616;SDS011;28250;52.320;0.360;2023-04-24T11:09:02;8.60;;;2.28;;
42616;SDS011;28250;52.320;0.360;2023-04-24T11:11:33;5.72;;;2.08;;
42616;SDS011;28250;52.320;0.360;2023-04-24T11:14:03;8.60;;;2.35;;
42616;SDS011;28250;52.320;0.360;2023-04-24T11:16:35;9.15;;;2.35;;
42616;SDS011;28250;52.320;0.360;2023-04-24T11:24:56;7.00;;;2.28;;
42616;SDS011;28250;52.320;0.360;2023-04-24T11:34:56;8.98;;;2.70;;
42616;SDS011;28250;52.320;0.360;2023-04-24T11:37:29;10.10;;;2.70;;
42616;SDS011;28250;52.320;0.360;2023-04-24T11:40:11;7.75;;;2.75;;
42616;SDS011;28250;52.320;0.360;2023-04-24T11:47:41;8.52;;;2.63;;
42616;SDS011;28250;52.320;0.360;2023-04-24T11:50:16;6.93;;;2.38;;
42616;SDS011;28250;52.320;0.360;2023-04-24T11:52:44;8.70;;;2.67;;
42616;SDS011;28250;52.320;0.360;2023-04-24T12:00:16;6.97;;;2.13;;
42616;SDS011;28250;52.320;0.360;2023-04-24T12:02:48;8.55;;;2.50;;
42616;SDS011;28250;52.320;0.360;2023-04-24T12:05:25;6.53;;;2.10;;
42616;SDS011;28250;52.320;0.360;2023-04-24T12:07:52;8.48;;;3.50;;
42616;SDS011;28250;52.320;0.360;2023-04-24T12:10:22;6.65;;;2.22;;
42616;SDS011;28250;52.320;0.360;2023-04-24T12:12:51;5.68;;;2.75;;
42616;SDS011;28250;52.320;0.360;2023-04-24T12:15:18;8.43;;;2.53;;
42616;SDS011;28250;52.320;0.360;2023-04-24T12:17:46;5.28;;;2.50;;
42616;SDS011;28250;52.320;0.360;2023-04-24T12:20:13;4.10;;;1.95;;
42616;SDS011;28250;52.320;0.360;2023-04-24T12:22:55;8.85;;;2.70;;
42616;SDS011;28250;52.320;0.360;2023-04-24T12:25:30;9.18;;;2.38;;
42616;SDS011;28250;52.320;0.360;2023-04-24T12:30:31;8.35;;;2.70;;
42616;SDS011;28250;52.320;0.360;2023-04-24T12:32:59;7.13;;;2.50;;
42616;SDS011;28250;52.320;0.360;2023-04-24T12:35:30;7.72;;;2.13;;
42616;SDS011;28250;52.320;0.360;2023-04-24T12:38:05;3.45;;;1.60;;
42616;SDS011;28250;52.320;0.360;2023-04-24T12:40:35;6.28;;;2.10;;
42616;SDS011;28250;52.320;0.360;2023-04-24T12:43:02;7.88;;;2.45;;
42616;SDS011;28250;52.320;0.360;2023-04-24T12:45:44;7.70;;;2.35;;
42616;SDS011;28250;52.320;0.360;2023-04-24T12:48:12;8.75;;;2.55;;
42616;SDS011;28250;52.320;0.360;2023-04-24T12:50:41;9.02;;;2.67;;
42616;SDS011;28250;52.320;0.360;2023-04-24T12:53:08;7.95;;;2.70;;
42616;SDS011;28250;52.320;0.360;2023-04-24T12:55:35;6.18;;;2.40;;
42616;SDS011;28250;52.320;0.360;2023-04-24T12:58:02;7.32;;;2.65;;
42616;SDS011;28250;52.320;0.360;2023-04-24T13:00:28;7.13;;;2.75;;
42616;SDS011;28250;52.320;0.360;2023-04-24T13:02:54;4.57;;;2.33;;
42616;SDS011;28250;52.320;0.360;2023-04-24T13:05:21;8.63;;;2.40;;
42616;SDS011;28250;52.320;0.360;2023-04-24T13:07:47;7.53;;;2.15;;
42616;SDS011;28250;52.320;0.360;2023-04-24T13:10:12;5.20;;;2.10;;
42616;SDS011;28250;52.320;0.360;2023-04-24T13:12:39;4.57;;;2.05;;
42616;SDS011;28250;52.320;0.360;2023-04-24T13:15:06;6.25;;;2.63;;
42616;SDS011;28250;52.320;0.360;2023-04-24T13:17:32;7.70;;;2.55;;
42616;SDS011;28250;52.320;0.360;2023-04-24T13:19:58;8.10;;;2.38;;
42616;SDS011;28250;52.320;0.360;2023-04-24T13:22:24;6.35;;;2.33;;
42616;SDS011;28250;52.320;0.360;2023-04-24T13:24:50;6.32;;;2.58;;
42616;SDS011;28250;52.320;0.360;2023-04-24T13:27:17;5.32;;;2.65;;
42616;SDS011;28250;52.320;0.360;2023-04-24T13:29:43;7.68;;;3.05;;
42616;SDS011;28250;52.320;0.360;2023-04-24T13:32:09;10.73;;;3.13;;
42616;SDS011;28250;52.320;0.360;2023-04-24T13:34:36;6.07;;;3.05;;
42616;SDS011;28250;52.320;0.360;2023-04-24T13:37:02;5.90;;;3.00;;
42616;SDS011;28250;52.320;0.360;2023-04-24T13:39:29;8.88;;;2.70;;
42616;SDS011;28250;52.320;0.360;2023-04-24T13:41:55;11.07;;;3.13;;
42616;SDS011;28250;52.320;0.360;2023-04-24T13:44:21;5.97;;;2.38;;
42616;SDS011;28250;52.320;0.360;2023-04-24T13:46:49;7.47;;;2.50;;
42616;SDS011;28250;52.320;0.360;2023-04-24T13:49:19;8.63;;;2.78;;
42616;SDS011;28250;52.320;0.360;2023-04-24T13:51:47;10.27;;;2.92;;
42616;SDS011;28250;52.320;0.360;2023-04-24T13:54:13;3.50;;;2.22;;
42616;SDS011;28250;52.320;0.360;2023-04-24T13:56:40;6.97;;;2.30;;
42616;SDS011;28250;52.320;0.360;2023-04-24T13:59:06;4.50;;;1.90;;
42616;SDS011;28250;52.320;0.360;2023-04-24T14:01:32;7.10;;;2.47;;
42616;SDS011;28250;52.320;0.360;2023-04-24T14:03:58;10.70;;;2.83;;
42616;SDS011;28250;52.320;0.360;2023-04-24T14:06:25;6.28;;;2.58;;
42616;SDS011;28250;52.320;0.360;2023-04-24T14:08:51;6.00;;;2.47;;
42616;SDS011;28250;52.320;0.360;2023-04-24T14:11:18;9.63;;;2.90;;
42616;SDS011;28250;52.320;0.360;2023-04-24T14:13:44;5.47;;;2.00;;
42616;SDS011;28250;52.320;0.360;2023-04-24T14:16:11;6.05;;;2.30;;
42616;SDS011;28250;52.320;0.360;2023-04-24T14:18:38;4.95;;;2.92;;
42616;SDS011;28250;52.320;0.360;2023-04-24T14:21:04;9.75;;;3.72;;
42616;SDS011;28250;52.320;0.360;2023-04-24T14:23:30;12.82;;;4.80;;
42616;SDS011;28250;52.320;0.360;2023-04-24T14:25:57;8.50;;;3.90;;
42616;SDS011;28250;52.320;0.360;2023-04-24T14:28:24;10.35;;;3.97;;
42616;SDS011;28250;52.320;0.360;2023-04-24T14:33:18;9.27;;;3.87;;
42616;SDS011;28250;52.320;0.360;2023-04-24T14:35:44;13.02;;;4.45;;
42616;SDS011;28250;52.320;0.360;2023-04-24T14:38:10;10.73;;;3.97;;
42616;SDS011;28250;52.320;0.360;2023-04-24T14:40:36;12.48;;;4.28;;
42616;SDS011;28250;52.320;0.360;2023-04-24T14:43:03;16.87;;;4.17;;
42616;SDS011;28250;52.320;0.360;2023-04-24T14:45:29;14.93;;;3.92;;
42616;SDS011;28250;52.320;0.360;2023-04-24T14:47:56;13.50;;;4.20;;
42616;SDS011;28250;52.320;0.360;2023-04-24T14:50:22;10.57;;;4.20;;
42616;SDS011;28250;52.320;0.360;2023-04-24T14:52:52;12.13;;;4.15;;
42616;SDS011;28250;52.320;0.360;2023-04-24T14:55:22;15.95;;;4.20;;
42616;SDS011;28250;52.320;0.360;2023-04-24T14:57:49;10.02;;;4.30;;
42616;SDS011;28250;52.320;0.360;2023-04-24T15:00:15;10.55;;;3.63;;
42616;SDS011;28250;52.320;0.360;2023-04-24T15:02:42;12.25;;;4.63;;
42616;SDS011;28250;52.320;0.360;2023-04-24T15:05:09;10.40;;;3.50;;
42616;SDS011;28250;52.320;0.360;2023-04-24T15:07:36;6.68;;;3.20;;
42616;SDS011;28250;52.320;0.360;2023-04-24T15:10:07;12.38;;;2.90;;
42616;SDS011;28250;52.320;0.360;2023-04-24T15:12:33;8.70;;;2.90;;
42616;SDS011;28250;52.320;0.360;2023-04-24T15:15:00;15.23;;;3.28;;
42616;SDS011;28250;52.320;0.360;2023-04-24T15:17:26;11.27;;;3.17;;
42616;SDS011;28250;52.320;0.360;2023-04-24T15:19:52;9.65;;;2.95;;
42616;SDS011;28250;52.320;0.360;2023-04-24T15:22:18;14.20;;;3.25;;
42616;SDS011;28250;52.320;0.360;2023-04-24T15:24:44;9.07;;;3.28;;
42616;SDS011;28250;52.320;0.360;2023-04-24T15:27:10;6.90;;;3.05;;
42616;SDS011;28250;52.320;0.360;2023-04-24T15:29:37;7.13;;;2.63;;
42616;SDS011;28250;52.320;0.360;2023-04-24T15:32:03;7.40;;;3.30;;
42616;SDS011;28250;52.320;0.360;2023-04-24T15:34:29;4.35;;;2.60;;
42616;SDS011;28250;52.320;0.360;2023-04-24T15:36:57;7.25;;;3.17;;
42616;SDS011;28250;52.320;0.360;2023-04-24T15:39:24;12.50;;;3.33;;
42616;SDS011;28250;52.320;0.360;2023-04-24T15:41:50;8.05;;;2.83;;
42616;SDS011;28250;52.320;0.360;2023-04-24T15:46:45;12.38;;;3.08;;